那覇空港の過去48時間の天気

那覇空港 (Naha)

現在時刻: 4/25 15:45 JST (4/25 06:45 UTC) 以下の時間は現地時間です。

過去48時間のMETAR気象情報
時間 風向 風速(m/s) 視程 気温(℃) 湿度(%) 気圧(hPa) 天気現象
25 15:30 北北西 6 10km以上 22 73 1010
25 15:00 北西 6 10km以上 23 69 1010
25 14:30 北北西 7 10km以上 23 69 1010
25 14:00 北北西 7 10km以上 23 69 1010
25 13:30 北北西 7 10km以上 23 69 1011
25 13:00 北北西 7 10km以上 23 65 1011
25 12:30 北北西 6 10km以上 23 69 1011
25 12:00 北北西 7 10km以上 23 69 1012
25 11:30 北北西 7 10km以上 23 69 1012
25 11:00 北北西 6 10km以上 23 73 1012
25 10:30 北北西 7 10km以上 22 73 1012
25 10:00 北北西 7 10km以上 22 73 1012
25 09:30 北北西 7 10km以上 22 73 1012
25 09:00 北北西 8 10km以上 22 78 1012
25 08:30 北北西 8 10km以上 21 78 1012
25 08:00 北北西 7 10km以上 21 83 1011
25 07:30 北北西 7 10km以上 22 78 1011
25 07:00 北北西 6 10km以上 21 83 1010
25 06:30 北北西 7 10km以上 21 83 1010
25 06:00 北北西 7 10km以上 21 83 1010
25 05:30 北北西 7 10km以上 21 83 1010 周辺でしゅう雨
25 05:00 北北西 7 10km以上 21 83 1009 周辺でしゅう雨
25 04:30 北北西 7 10km以上 21 83 1009 周辺でしゅう雨
25 04:00 北北西 6 10km以上 21 83 1009 周辺でしゅう雨
25 03:30 北北西 6 10km以上 21 83 1009
25 03:00 北北西 6 10km以上 21 83 1009
25 02:30 北北西 6 10km以上 21 88 1009
25 02:00 北北西 6 10km以上 21 88 1009 弱いしゅう雨
25 01:30 北北西 5 10km以上 21 88 1010 周辺でしゅう雨
25 01:00 北北西 5 10km以上 21 88 1010
25 00:30 北北西 6 10km以上 21 88 1010
25 00:00 北北西 6 10km以上 21 88 1010 周辺でしゅう雨
24 23:30 北北西 7 10km以上 21 94 1010 周辺でしゅう雨
24 23:00 北北西 7 9,000m 21 94 1010 弱い雨
24 22:30 北北西 6 10km以上 22 88 1010 弱いしゅう雨
24 22:00 北北西 5 10km以上 22 88 1010 しゅう雨
24 21:30 北北西 6 10km以上 22 94 1010 しゅう雨
24 21:17 6 10km以上 22 94 1010 しゅう雨
24 21:00 北北西 7 8,000m 22 94 1009 雷雨
24 20:47 北西 4 6,000m 22 94 1009 雷雨
24 20:38 西 4 4,000m 23 94 1009 雷雨
24 20:30 西南西 6 2,000m 23 94 1009 雷雨
24 20:17 南西 6 2,000m 23 94 1009 強い雷雨
24 20:09 5 4,000m 25 89 1009 雷雨
24 20:00 南南西 5 4,000m 25 94 1008 しゅう雨
24 19:30 6 6,000m 25 89 1008 弱いしゅう雨
24 19:00 5 10km以上 25 89 1008 弱いしゅう雨
24 18:30 6 10km以上 25 89 1008 周辺でしゅう雨
24 18:00 6 10km以上 25 89 1008
24 17:30 6 10km以上 25 89 1007
24 17:00 7 10km以上 25 89 1007
24 16:30 7 10km以上 25 89 1007
24 16:00 8 10km以上 26 84 1007
24 15:30 7 10km以上 26 84 1007
24 15:00 7 10km以上 26 84 1008
24 14:30 8 10km以上 26 84 1008
24 14:00 8 10km以上 27 84 1009
24 13:30 8 10km以上 26 84 1009
24 13:00 8 10km以上 27 79 1009
24 12:30 10 10km以上 27 79 1009
24 12:00 9 10km以上 27 79 1010
24 11:30 8 10km以上 27 79 1010
24 11:00 9 10km以上 26 79 1010
24 10:30 10 10km以上 26 79 1010
24 10:00 9 10km以上 26 79 1010
24 09:30 8 10km以上 26 84 1010
24 09:00 8 10km以上 25 83 1011
24 08:30 南南東 8 10km以上 26 79 1010
24 08:00 南南東 8 10km以上 25 83 1010
24 07:30 南南東 7 10km以上 25 83 1010
24 07:00 南南東 6 10km以上 24 89 1010
24 06:30 南南東 7 10km以上 24 89 1011
24 06:00 南南東 6 10km以上 24 89 1010
24 05:30 南南東 6 10km以上 24 89 1010
24 05:13 南南東 6 10km以上 24 89 1010
24 05:00 7 10km以上 24 89 1010
24 04:30 南南東 7 10km以上 24 89 1010
24 04:00 南南東 6 10km以上 24 89 1010
24 03:30 南南東 7 10km以上 24 89 1010
24 03:00 南南東 7 10km以上 24 83 1010
24 02:30 5 10km以上 24 83 1010
24 02:00 南南東 7 10km以上 24 83 1011
24 01:30 南南東 6 10km以上 24 83 1011
24 01:00 南南東 6 10km以上 24 83 1011
24 00:30 南南東 6 10km以上 24 89 1012
24 00:00 南南東 6 10km以上 24 83 1012
23 23:30 南東 6 10km以上 24 89 1012
23 23:00 南東 6 10km以上 24 83 1013
23 22:30 南東 5 10km以上 24 83 1013
23 21:30 南東 5 10km以上 24 89 1013
23 21:00 南東 6 10km以上 24 83 1013
23 20:30 南東 5 10km以上 24 83 1012
23 20:00 南東 5 10km以上 24 89 1012
23 19:30 南東 6 10km以上 24 83 1012
23 19:00 南東 5 10km以上 24 83 1012
23 18:30 南東 5 10km以上 25 78 1012
23 18:00 南東 6 10km以上 25 83 1011
23 17:30 南東 7 10km以上 26 74 1011
23 17:00 南南東 7 10km以上 26 74 1011
23 16:30 南南東 7 10km以上 26 70 1011
23 16:00 南東 7 10km以上 26 74 1011
ROAH 250630Z 33012KT 9999 FEW017 BKN035 22/17 Q1010
ROAH 250600Z 32012KT 9999 FEW017 BKN035 23/17 Q1010
ROAH 250530Z 33013KT 9999 SCT018 BKN035 23/17 Q1010
ROAH 250500Z 33013KT 9999 SCT020 BKN035 23/17 Q1010
ROAH 250430Z 33013KT 9999 FEW020 BKN035 23/17 Q1011
ROAH 250400Z 33013KT 9999 FEW020 BKN035 23/16 Q1011
ROAH 250330Z 34012KT 9999 FEW020 BKN035 23/17 Q1011
ROAH 250300Z 34013KT 9999 FEW020 BKN035 23/17 Q1012
ROAH 250230Z 33013KT 9999 FEW018 BKN036 23/17 Q1012
ROAH 250200Z 33012KT 9999 FEW018 BKN035 23/18 Q1012 RMK 2CU018 7SC035 A2989
ROAH 250130Z 33014KT 9999 FEW015 BKN035 22/17 Q1012
ROAH 250100Z 33013KT 9999 FEW015 BKN030 22/17 Q1012 RMK 2CU015 6CU030 A2990
ROAH 250030Z 34013KT 9999 FEW020 BKN030 22/17 Q1012 RMK 2CU020 7CU030 A2990
ROAH 250000Z 34015KT 9999 FEW015 BKN030 22/18 Q1012 RMK 1CU015 7CU030 A2990
ROAH 242330Z 33015KT 9999 FEW015 BKN020 21/17 Q1012 RMK 1CU015 7CU020 A2988
ROAH 242300Z 33013KT 9999 FEW015 BKN030 21/18 Q1011
ROAH 242230Z 33013KT 9999 FEW015 BKN030 22/18 Q1011 RMK 1CU015 6CU030 A2986
ROAH 242200Z 33011KT 9999 FEW015 BKN025 21/18 Q1010 RMK 1CU015 6CU025 A2985
ROAH 242130Z 33013KT 9999 FEW010 BKN020 21/18 Q1010 RMK 1CU010 7CU020 A2984
ROAH 242100Z 33013KT 9999 FEW010 BKN020 21/18 Q1010 RMK 1CU010 7CU020 A2983
ROAH 242030Z 33013KT 9999 VCSH FEW010 BKN015 21/18 Q1010 RMK 1CU010 7CU015 A2982
ROAH 242000Z 33013KT 9999 VCSH FEW015 BKN020 21/18 Q1009 RMK 2CU015 7CU020 A2981
ROAH 241930Z 33013KT 9999 VCSH FEW010 BKN020 21/18 Q1009 RMK 2CU010 7CU020 A2982
ROAH 241900Z 33011KT 9999 VCSH SCT015 BKN020 21/18 Q1009 RMK 4CU015 7CU020 A2982
ROAH 241830Z 33012KT 9999 SCT015 BKN020 21/18 Q1009 RMK 3CU015 7CU020 A2981
ROAH 241800Z 33011KT 9999 FEW012 BKN016 21/18 Q1009 RMK 2CU012 6CU016 A2981
ROAH 241730Z 33011KT 9999 FEW010 BKN015 21/19 Q1009 RMK 2CU010 6CU015 A2981
ROAH 241700Z 33012KT 9999 -SHRA FEW010 BKN015 21/19 Q1009 RMK 1CU010 6CU015 A2982
ROAH 241630Z 33009KT 9999 VCSH FEW008 BKN015 21/19 Q1010 RMK 1ST008 6CU015 A2983
ROAH 241600Z 33010KT 9999 FEW008 BKN012 21/19 Q1010 RMK 1ST008 6CU012 A2984
ROAH 241530Z 33012KT 9999 FEW008 SCT010 BKN015 21/19 Q1010 RMK 1ST008 4CU010 6CU015 A2984
ROAH 241500Z 34012KT 9999 VCSH FEW006 BKN010 BKN020 21/19 Q1010 RMK 1ST006 5CU010 6CU020 A2985
ROAH 241430Z 34013KT 9999 VCSH FEW004 SCT008 BKN020 21/20 Q1010 RMK 1ST004 3ST008 6CU020 A2984
ROAH 241400Z 33014KT 9000 -RA FEW004 SCT007 BKN013 21/20 Q1010 RMK 1ST004 3ST007 5CU013 A2985
ROAH 241330Z 34012KT 9999 -SHRA FEW006 BKN013 22/20 Q1010 RMK 2ST006 6CU013 A2984
ROAH 241300Z 34009KT 9999 SHRA FEW005 SCT020 BKN070 22/20 Q1010 RMK 2ST005 3CU020 6AC070 A2984
ROAH 241230Z 34011KT 9999 SHRA FEW005 SCT020 BKN070 22/21 Q1010 RMK 2ST005 3CU020 6AC070 A2983
ROAH 241217Z 35011KT 9999 SHRA FEW005 SCT030 BKN040 22/21 Q1010 RMK 2ST005 3CU030 6SC040 A2983
ROAH 241200Z 34013KT 8000 TSRA FEW005 FEW020CB SCT030 BKN050 22/21 Q1009 RMK 2ST005 2CB020 3CU030 6SC050 A2982 FBL TS 10KM NE MOV NE
ROAH 241147Z 32008KT 280V350 6000 TSRA FEW005 FEW010CB BKN025 BKN050 22/21 Q1009 RMK 2ST005 2CB010 5CU025 6SC050 A2982 FBL TS 8KM N-NE MOV NE
ROAH 241138Z 28008KT 250V320 4000 TSRA SCT005 FEW010CB BKN025 23/22 Q1009 RMK 3ST005 2CB010 6CU025 A2981 FBL TS 5KM N-NE MOV NE
ROAH 241130Z 25011KT 230V320 2000 R36/P1800N TSRA SCT005 SCT010CB BKN020 23/22 Q1009 RMK 3ST005 3CB010 6CU020 A2982 MOD TS OHD MOV NE
ROAH 241117Z 23012KT 170V300 2000 +TSRA BKN005 SCT010CB BKN015 23/22 Q1009 RMK 5ST005 3CB010 6CU015 A2981 MOD TS OHD MOV NE RI++
ROAH 241109Z 19009KT 4000 TSRA BKN005 SCT010CB BKN015 25/23 Q1009 RMK 5ST005 3CB010 6CU015 A2980 FBL TS OHD MOV NE
ROAH 241100Z 20010KT 4000 SHRA BKN006 FEW010TCU BKN015 25/24 Q1008 RMK 5ST006 2TCU010 6CU015 A2979 TCU 8KM W-N MOV NE
ROAH 241030Z 19011KT 6000 -SHRA BKN007 BKN015 25/23 Q1008 RMK 5ST007 6CU015 A2979
ROAH 241000Z 19010KT 9999 -SHRA FEW007 SCT015 BKN050 25/23 Q1008 RMK 2ST007 3CU015 7SC050 A2978
ROAH 240930Z 19012KT 9999 VCSH FEW008 SCT020 BKN045 25/23 Q1008 RMK 2ST008 4CU020 7SC045 A2977
ROAH 240900Z 19011KT 9999 FEW007 SCT020 BKN030 25/23 Q1008 RMK 1ST007 3CU020 7CU030 A2977
ROAH 240830Z 19011KT 9999 FEW006 SCT010 BKN030 25/23 Q1007 RMK 1ST006 4CU010 7CU030 A2976
ROAH 240800Z 18014KT 9999 FEW005 BKN010 BKN030 25/23 Q1007 RMK 2ST005 5CU010 7CU030 A2975
ROAH 240730Z 18014KT 9999 FEW005 SCT010 BKN030 25/23 Q1007 RMK 1ST005 3CU010 7CU030 A2975
ROAH 240700Z 18015KT 9999 FEW007 SCT010 BKN045 26/23 Q1007 RMK 1ST007 3CU010 7SC045 A2975
ROAH 240630Z 18014KT 9999 SCT010 BKN045 26/23 Q1007 RMK 3CU010 7SC045 A2975
ROAH 240600Z 18014KT 9999 SCT010 BKN045 26/23 Q1008 RMK 4CU010 7SC045 A2977
ROAH 240530Z 18015KT 9999 SCT010 BKN045 26/23 Q1008 RMK 4CU010 7SC045 A2979
ROAH 240500Z 18015KT 9999 FEW010 BKN045 27/24 Q1009 RMK 2CU010 7SC045 A2980
ROAH 240430Z 18015KT 9999 FEW010 SCT045 BKN/// 26/23 Q1009
ROAH 240400Z 18016KT 9999 FEW010 BKN045 27/23 Q1009 RMK 2CU010 6SC045 A2981
ROAH 240330Z 18019KT 9999 FEW008 SCT010 BKN/// 27/23 Q1009
ROAH 240300Z 18017KT 9999 FEW010 SCT015 BKN/// 27/23 Q1010
ROAH 240230Z 18016KT 9999 FEW010 SCT015 BKN060 27/23 Q1010 RMK 1CU010 3CU015 5SC060 A2984
ROAH 240200Z 18017KT 9999 FEW008 SCT010 BKN045 26/22 Q1010 RMK 1ST008 3CU010 5SC045 A2985
ROAH 240130Z 17019KT 9999 FEW008 SCT010 BKN/// 26/22 Q1010
ROAH 240100Z 17018KT 9999 FEW008 SCT010 BKN035 26/22 Q1010 RMK 1ST008 3CU010 5CU035 A2984
ROAH 240030Z 17016KT 9999 FEW008 SCT010 BKN/// 26/23 Q1010 RMK 1ST008 4CU010 A2985
ROAH 240000Z 17015KT 9999 FEW008 BKN010 BKN/// 25/22 Q1011
ROAH 232330Z 16016KT 9999 SCT010 BKN/// 26/22 Q1010
ROAH 232300Z 16015KT 9999 FEW007 SCT010 BKN/// 25/22 Q1010
ROAH 232230Z 16013KT 9999 FEW008 SCT010 BKN040 25/22 Q1010 RMK 2ST008 3CU010 6SC040 A2985
ROAH 232200Z 16012KT 9999 FEW007 SCT009 BKN040 24/22 Q1010 RMK 1ST007 3CU009 5SC040 A2985
ROAH 232130Z 16013KT 9999 FEW007 SCT009 BKN035 24/22 Q1011 RMK 1ST007 4CU009 6CU035 A2985
ROAH 232100Z 16012KT 9999 FEW007 SCT035 BKN100 24/22 Q1010 RMK 2ST007 3CU035 5AC100 A2984
ROAH 232030Z 16011KT 9999 FEW007 SCT020 BKN040 24/22 Q1010 RMK 2ST007 3CU020 6SC040 A2984
ROAH 232013Z 16012KT 9999 FEW007 SCT009 BKN040 24/22 Q1010 RMK 1ST007 3CU009 5SC040 A2983
ROAH 232000Z 17013KT 9999 FEW007 BKN009 24/22 Q1010 RMK 2ST007 6CU009 A2984
ROAH 231930Z 16013KT 9999 FEW006 BKN009 24/22 Q1010 RMK 2ST006 6CU009 A2983
ROAH 231900Z 16012KT 9999 FEW006 BKN009 24/22 Q1010 RMK 2ST006 6CU009 A2983
ROAH 231830Z 15013KT 9999 FEW007 BKN009 24/22 Q1010 RMK 2ST007 6CU009 A2983
ROAH 231800Z 15014KT 9999 FEW008 24/21 Q1010 RMK 2ST008 A2983
ROAH 231730Z VRB10KT 9999 FEW008 24/21 Q1010 RMK 2ST008 A2984
ROAH 231700Z 15013KT 9999 FEW008 SCT035 24/21 Q1011 RMK 1ST008 3CU035 A2985
ROAH 231630Z 15012KT 9999 FEW010 BKN040 24/21 Q1011 RMK 1CU010 5SC040 A2987
ROAH 231600Z 15012KT 9999 FEW010 SCT030 24/21 Q1011 RMK 1CU010 3CU030 A2988
ROAH 231530Z 15012KT 9999 FEW010 BKN040 24/22 Q1012 RMK 1CU010 5SC040 A2989
ROAH 231500Z 15012KT 9999 FEW010 SCT040 24/21 Q1012 RMK 2CU010 3SC040 A2990
ROAH 231430Z 14011KT 9999 FEW010 SCT040 24/22 Q1012 RMK 2CU010 3SC040 A2991
ROAH 231400Z 14012KT 9999 FEW010 BKN040 24/21 Q1013 RMK 1CU010 5SC040 A2992
ROAH 231330Z 14010KT 9999 FEW010 BKN040 24/21 Q1013 RMK 1CU010 5SC040 A2992
ROAH 231230Z 13010KT 9999 FEW010 SCT040 BKN/// 24/22 Q1013
ROAH 231200Z 14011KT 9999 FEW010 SCT040 BKN/// 24/21 Q1013
ROAH 231130Z 13010KT 9999 FEW010 SCT/// 24/21 Q1012 RMK 2CU010 A2990
ROAH 231100Z 14010KT 9999 FEW012 SCT/// 24/22 Q1012
ROAH 231030Z 14011KT 9999 FEW012 BKN/// 24/21 Q1012
ROAH 231000Z 14010KT 9999 FEW015 BKN/// 24/21 Q1012
ROAH 230930Z 14010KT 9999 FEW015 BKN/// 25/21 Q1012 RMK 2CU015 A2989
ROAH 230900Z 14012KT 9999 FEW015 BKN/// 25/22 Q1011
ROAH 230830Z 14013KT 9999 FEW015 BKN/// 26/21 Q1011
ROAH 230800Z 15013KT 9999 FEW015 BKN/// 26/21 Q1011 RMK 2CU015 A2987
ROAH 230730Z 15013KT 9999 FEW015 BKN/// 26/20 Q1011
ROAH 230700Z 14013KT 9999 SCT015 BKN/// 26/21 Q1011 RMK 4CU015 A2987